createdAt,value
2023-03-24T00:03:08.437Z,100546.69
2023-03-24T00:08:12.554Z,100533.94
2023-03-24T00:13:16.985Z,100560.44
2023-03-24T00:18:23.134Z,100566.38
2023-03-24T00:23:28.770Z,100568.69
2023-03-24T00:28:34.932Z,100556.88
2023-03-24T00:33:41.341Z,100575.38
2023-03-24T00:38:45.378Z,100579.63
2023-03-24T00:43:51.245Z,100582.28
2023-03-24T00:49:07.676Z,100588.19
2023-03-24T00:54:14.742Z,100587.25
2023-03-24T00:59:18.771Z,100542.84
2023-03-24T01:04:27.072Z,100545.13
2023-03-24T01:09:31.840Z,100610.75
2023-03-24T01:14:35.950Z,100601.75
2023-03-24T01:19:41.726Z,100628.59
2023-03-24T01:24:45.695Z,100635.97
2023-03-24T01:29:50.134Z,100647.00
2023-03-24T01:34:54.082Z,100662.34
2023-03-24T01:39:58.155Z,100666.44
2023-03-24T01:45:23.111Z,100668.75
2023-03-24T01:50:27.465Z,100682.38
2023-03-24T01:55:32.977Z,100676.28
2023-03-24T02:00:38.837Z,100687.38
2023-03-24T02:06:07.588Z,100676.34
2023-03-24T02:11:12.007Z,100695.53
2023-03-24T02:16:48.896Z,100692.63
2023-03-24T02:22:36.024Z,100703.59
2023-03-24T02:27:59.046Z,100698.03
2023-03-24T02:33:30.290Z,100708.78
2023-03-24T02:38:40.445Z,100715.41
2023-03-24T02:44:05.836Z,100726.91
2023-03-24T02:49:53.190Z,100733.53
2023-03-24T02:55:23.459Z,100738.00
2023-03-24T03:00:48.797Z,100730.41
2023-03-24T03:06:25.478Z,100747.06
2023-03-24T03:11:29.728Z,100751.88
2023-03-24T03:16:39.930Z,100741.00
2023-03-24T03:21:46.797Z,100759.06
2023-03-24T03:26:51.427Z,100753.16
2023-03-24T03:32:08.828Z,100773.81
2023-03-24T03:37:24.090Z,100776.00
2023-03-24T03:42:28.294Z,100782.03
2023-03-24T03:47:33.791Z,100795.72
2023-03-24T03:52:42.463Z,100786.47
2023-03-24T03:57:47.511Z,100790.00
2023-03-24T04:03:18.385Z,100795.16
2023-03-24T04:08:43.469Z,100794.09
2023-03-24T04:14:12.006Z,100792.59
2023-03-24T04:19:59.487Z,100797.84
2023-03-24T04:25:12.307Z,100791.47
2023-03-24T04:30:31.825Z,100791.22
2023-03-24T04:35:46.421Z,100790.25
2023-03-24T04:41:09.073Z,100796.03
2023-03-24T04:46:18.865Z,100809.22
2023-03-24T04:51:34.475Z,100811.50
2023-03-24T04:57:05.198Z,100816.97
2023-03-24T05:02:14.150Z,100822.94
2023-03-24T05:07:29.474Z,100815.25
2023-03-24T05:12:36.941Z,100811.91
2023-03-24T05:17:59.542Z,100800.56
2023-03-24T05:23:04.015Z,100818.78
2023-03-24T05:28:08.032Z,100816.34
2023-03-24T05:33:12.801Z,100778.00
2023-03-24T05:38:17.446Z,100820.41
2023-03-24T05:43:26.699Z,100819.84
2023-03-24T05:48:42.756Z,100817.31
2023-03-24T05:53:53.504Z,100743.66
2023-03-24T05:59:33.348Z,100794.84
2023-03-24T06:05:10.967Z,100805.22
2023-03-24T06:10:15.196Z,100811.53
2023-03-24T06:15:28.725Z,100824.44
2023-03-24T06:20:45.753Z,100809.69
2023-03-24T06:25:59.988Z,100811.22
2023-03-24T06:31:07.174Z,100813.88
2023-03-24T06:36:15.194Z,100815.53
2023-03-24T06:41:20.551Z,100810.84
2023-03-24T06:46:28.874Z,100819.06
2023-03-24T06:51:33.699Z,100813.22
2023-03-24T06:56:37.851Z,100818.72
2023-03-24T07:01:43.028Z,100808.78
2023-03-24T07:07:14.710Z,100802.28
2023-03-24T07:12:24.112Z,100795.69
2023-03-24T07:17:28.061Z,100801.53
2023-03-24T07:22:45.568Z,100738.00
2023-03-24T07:28:10.107Z,100787.19
2023-03-24T07:33:15.626Z,100783.19
2023-03-24T07:38:21.653Z,100778.06
2023-03-24T07:43:29.040Z,100780.53
2023-03-24T07:49:16.121Z,100771.28
2023-03-24T07:54:30.373Z,100755.69
2023-03-24T07:59:34.978Z,100766.63
2023-03-24T08:04:43.956Z,100765.91
2023-03-24T08:10:23.560Z,100765.25
2023-03-24T08:15:29.175Z,100755.25
2023-03-24T08:20:33.219Z,100759.03
2023-03-24T08:25:38.011Z,100755.88
2023-03-24T08:30:44.475Z,100748.94
2023-03-24T08:35:48.893Z,100771.78
2023-03-24T08:40:53.567Z,100765.84
2023-03-24T08:46:00.848Z,100769.47
2023-03-24T08:51:15.439Z,100761.53
2023-03-24T08:56:20.584Z,100760.19
2023-03-24T09:01:25.210Z,100774.22
2023-03-24T09:06:29.165Z,100770.53
2023-03-24T09:11:33.409Z,100757.91
2023-03-24T09:16:37.389Z,100759.34
2023-03-24T09:21:43.559Z,100764.53
2023-03-24T09:26:47.738Z,100761.84
2023-03-24T09:31:54.517Z,100761.25
2023-03-24T09:36:58.431Z,100764.25
2023-03-24T09:42:02.529Z,100757.75
2023-03-24T09:47:06.307Z,100756.56
2023-03-24T09:52:16.122Z,100757.97
2023-03-24T09:57:26.164Z,100748.63
2023-03-24T10:02:32.253Z,100740.91
2023-03-24T10:07:47.246Z,100747.97
2023-03-24T10:12:51.522Z,100751.75
2023-03-24T10:18:13.832Z,100755.78
2023-03-24T10:23:36.456Z,100761.03
2023-03-24T10:28:52.232Z,100763.41
2023-03-24T10:33:57.622Z,100764.19
2023-03-24T10:39:16.349Z,100762.16
2023-03-24T10:44:23.604Z,100757.19
2023-03-24T10:49:27.597Z,100764.53
2023-03-24T10:54:32.730Z,100752.84
2023-03-24T10:59:57.534Z,100765.81
2023-03-24T11:05:06.151Z,100758.56
2023-03-24T11:10:16.209Z,100739.94
2023-03-24T11:15:31.540Z,100750.63
2023-03-24T11:21:05.950Z,100733.91
2023-03-24T11:26:23.021Z,100727.34
2023-03-24T11:31:32.337Z,100730.28
2023-03-24T11:36:46.270Z,100729.97
2023-03-24T11:42:11.738Z,100736.34
2023-03-24T11:47:54.433Z,100745.25
2023-03-24T11:53:16.368Z,100723.34
2023-03-24T11:58:28.773Z,100742.53
2023-03-24T12:03:51.062Z,100681.78
2023-03-24T12:09:22.233Z,100744.47
2023-03-24T12:14:55.833Z,100737.97
2023-03-24T12:20:17.861Z,100735.72
2023-03-24T12:25:32.095Z,100712.84
2023-03-24T12:30:36.151Z,100705.63
2023-03-24T12:35:48.171Z,100684.47
2023-03-24T12:41:12.812Z,100674.69
2023-03-24T12:46:48.447Z,100659.78
2023-03-24T12:52:05.465Z,100671.78
2023-03-24T12:57:15.444Z,100685.75
2023-03-24T13:02:28.363Z,100689.38
2023-03-24T13:07:39.751Z,100662.63
2023-03-24T13:13:23.193Z,100681.50
2023-03-24T13:18:53.965Z,100697.25
2023-03-24T13:24:15.376Z,100683.69
2023-03-24T13:29:50.071Z,100682.31
2023-03-24T13:34:57.261Z,100691.31
2023-03-24T13:40:07.598Z,100681.16
2023-03-24T13:45:40.292Z,100676.31
2023-03-24T13:51:07.744Z,100680.50
2023-03-24T13:56:21.635Z,100689.34
2023-03-24T14:01:43.283Z,100688.38
2023-03-24T14:06:49.145Z,100685.75
2023-03-24T14:11:55.851Z,100682.84
2023-03-24T14:17:06.030Z,100679.22
2023-03-24T14:22:12.001Z,100689.56
2023-03-24T14:27:35.487Z,100694.84
2023-03-24T14:32:56.276Z,100707.13
2023-03-24T14:38:24.960Z,100696.84
2023-03-24T14:43:50.379Z,100699.38
2023-03-24T14:49:04.608Z,100701.84
2023-03-24T14:54:40.023Z,100687.66
2023-03-24T14:59:56.538Z,100683.09
2023-03-24T15:05:26.385Z,100692.53
2023-03-24T15:10:49.706Z,100674.69
2023-03-24T15:15:53.986Z,100674.88
2023-03-24T15:20:58.209Z,100670.63
2023-03-24T15:26:02.504Z,100659.44
2023-03-24T15:31:07.094Z,100653.88
2023-03-24T15:36:22.711Z,100652.91
2023-03-24T15:41:26.656Z,100658.91
2023-03-24T15:46:31.793Z,100651.94
2023-03-24T15:51:58.399Z,100661.50
2023-03-24T15:57:14.655Z,100661.75
2023-03-24T16:02:42.738Z,100652.63
2023-03-24T16:07:57.053Z,100651.41
2023-03-24T16:13:12.582Z,100657.53
2023-03-24T16:18:21.148Z,100657.72
2023-03-24T16:23:26.840Z,100641.59
2023-03-24T16:28:32.808Z,100644.19
2023-03-24T16:33:38.259Z,100639.19
2023-03-24T16:38:42.685Z,100629.00
2023-03-24T16:43:47.768Z,100624.84
2023-03-24T16:48:51.765Z,100624.56
2023-03-24T16:53:55.865Z,100625.34
2023-03-24T16:59:00.190Z,100613.50
2023-03-24T17:04:11.108Z,100611.06
2023-03-24T17:09:15.496Z,100599.72
2023-03-24T17:14:19.884Z,100608.34
2023-03-24T17:19:25.034Z,100601.03
2023-03-24T17:24:42.590Z,100597.16
2023-03-24T17:29:47.124Z,100536.66
2023-03-24T17:34:51.033Z,100577.03
2023-03-24T17:39:57.012Z,100582.44
2023-03-24T17:45:00.894Z,100585.22
2023-03-24T17:50:12.086Z,100587.94
2023-03-24T17:55:18.041Z,100586.41
2023-03-24T18:00:22.437Z,100578.13
2023-03-24T18:05:26.926Z,100584.28
2023-03-24T18:10:35.070Z,100539.66
2023-03-24T18:15:43.575Z,100576.97
2023-03-24T18:20:47.625Z,100571.25
2023-03-24T18:26:05.446Z,100576.41
2023-03-24T18:31:19.438Z,100576.50
2023-03-24T18:36:27.157Z,100578.41
2023-03-24T18:41:31.944Z,100570.84
2023-03-24T18:46:37.569Z,100562.72
2023-03-24T18:51:43.070Z,100569.44
2023-03-24T18:56:47.081Z,100580.72
2023-03-24T19:01:51.203Z,100574.78
2023-03-24T19:06:55.637Z,100564.84
2023-03-24T19:11:59.561Z,100564.66
2023-03-24T19:17:03.762Z,100566.56
2023-03-24T19:22:09.042Z,100552.44
2023-03-24T19:27:13.195Z,100564.09
2023-03-24T19:32:17.155Z,100559.69
2023-03-24T19:37:22.588Z,100520.72
2023-03-24T19:42:32.078Z,100544.06
2023-03-24T19:47:37.682Z,100486.69
2023-03-24T19:52:46.658Z,100545.31
2023-03-24T19:57:50.600Z,100552.97
2023-03-24T20:02:54.781Z,100546.94
2023-03-24T20:08:00.044Z,100542.00
2023-03-24T20:13:04.202Z,100523.94
2023-03-24T20:18:08.491Z,100548.84
2023-03-24T20:23:13.005Z,100536.13
2023-03-24T20:28:17.829Z,100524.19
2023-03-24T20:33:22.643Z,100526.16
2023-03-24T20:38:27.155Z,100505.84
2023-03-24T20:43:35.566Z,100527.66
2023-03-24T20:48:39.394Z,100519.84
2023-03-24T20:53:45.528Z,100516.25
2023-03-24T20:58:50.952Z,100516.16
2023-03-24T21:03:58.248Z,100514.34
2023-03-24T21:09:09.114Z,100511.66
2023-03-24T21:14:12.813Z,100515.81
2023-03-24T21:19:17.476Z,100520.00
2023-03-24T21:24:21.770Z,100493.31
2023-03-24T21:29:27.374Z,100499.19
2023-03-24T21:34:31.209Z,100498.28
2023-03-24T21:39:35.382Z,100490.50
2023-03-24T21:44:40.301Z,100478.41
2023-03-24T21:49:46.494Z,100468.03
2023-03-24T21:54:50.455Z,100465.31
2023-03-24T21:59:54.453Z,100457.50
2023-03-24T22:05:02.187Z,100443.13
2023-03-24T22:10:08.952Z,100455.78
2023-03-24T22:15:13.303Z,100454.75
2023-03-24T22:20:17.825Z,100457.19
2023-03-24T22:25:21.651Z,100460.59
2023-03-24T22:30:25.948Z,100455.28
2023-03-24T22:35:30.279Z,100456.91
2023-03-24T22:40:35.087Z,100449.94
2023-03-24T22:45:38.931Z,100437.97
2023-03-24T22:50:43.182Z,100443.91
2023-03-24T22:55:47.294Z,100433.66
2023-03-24T23:00:55.373Z,100440.41
2023-03-24T23:06:03.313Z,100441.44
2023-03-24T23:11:08.636Z,100459.28
2023-03-24T23:16:13.310Z,100454.31
2023-03-24T23:21:18.960Z,100454.19
2023-03-24T23:26:25.408Z,100453.25
2023-03-24T23:31:31.050Z,100466.06
2023-03-24T23:36:35.053Z,100449.81
2023-03-24T23:41:39.004Z,100473.75
2023-03-24T23:46:43.413Z,100470.25
2023-03-24T23:51:47.359Z,100433.41
2023-03-24T23:56:52.291Z,100459.00
